createdAt,value
2022-07-29T00:01:09.091Z,19.90
2022-07-29T00:03:47.663Z,20.00
2022-07-29T00:06:15.736Z,19.90
2022-07-29T00:08:44.917Z,19.90
2022-07-29T00:11:12.736Z,19.80
2022-07-29T00:13:40.586Z,19.90
2022-07-29T00:16:08.478Z,19.70
2022-07-29T00:18:36.328Z,19.60
2022-07-29T00:21:04.186Z,19.50
2022-07-29T00:23:36.457Z,19.60
2022-07-29T00:26:06.030Z,19.60
2022-07-29T00:28:33.948Z,19.40
2022-07-29T00:31:01.867Z,19.40
2022-07-29T00:33:30.358Z,19.30
2022-07-29T00:35:57.224Z,19.30
2022-07-29T00:38:25.221Z,19.30
2022-07-29T00:40:53.436Z,19.30
2022-07-29T00:43:22.710Z,19.30
2022-07-29T00:45:50.599Z,19.20
2022-07-29T00:48:18.491Z,19.10
2022-07-29T00:50:46.376Z,19.10
2022-07-29T00:53:14.285Z,19.10
2022-07-29T00:55:42.204Z,19.20
2022-07-29T00:58:10.111Z,19.30
2022-07-29T01:00:41.658Z,19.20
2022-07-29T01:03:09.657Z,19.20
2022-07-29T01:05:49.785Z,19.20
2022-07-29T01:08:19.572Z,19.30
2022-07-29T01:10:47.512Z,19.30
2022-07-29T01:13:15.481Z,19.10
2022-07-29T01:15:48.997Z,19.00
2022-07-29T01:18:22.207Z,19.00
2022-07-29T01:21:20.036Z,19.10
2022-07-29T01:24:00.480Z,19.10
2022-07-29T01:26:37.327Z,19.10
2022-07-29T01:29:08.720Z,19.10
2022-07-29T01:31:58.497Z,19.10
2022-07-29T01:34:33.320Z,19.00
2022-07-29T01:37:06.220Z,18.90
2022-07-29T01:39:35.971Z,18.80
2022-07-29T01:42:08.009Z,18.80
2022-07-29T01:44:40.063Z,18.80
2022-07-29T01:47:12.670Z,18.70
2022-07-29T01:49:43.082Z,18.50
2022-07-29T01:52:13.105Z,18.60
2022-07-29T01:54:44.035Z,18.60
2022-07-29T01:57:16.342Z,18.60
2022-07-29T01:59:45.542Z,18.60
2022-07-29T02:02:13.500Z,18.50
2022-07-29T02:04:41.515Z,18.60
2022-07-29T02:07:09.636Z,18.50
2022-07-29T02:09:38.841Z,18.40
2022-07-29T02:12:07.200Z,18.30
2022-07-29T02:14:36.292Z,18.30
2022-07-29T02:17:05.512Z,18.20
2022-07-29T02:19:34.181Z,18.20
2022-07-29T02:22:02.599Z,18.20
2022-07-29T02:24:30.613Z,18.20
2022-07-29T02:26:58.525Z,18.30
2022-07-29T02:29:29.104Z,18.40
2022-07-29T02:31:56.970Z,18.30
2022-07-29T02:34:26.286Z,18.00
2022-07-29T02:36:54.137Z,18.10
2022-07-29T02:39:22.011Z,18.10
2022-07-29T02:41:50.714Z,18.00
2022-07-29T02:44:20.198Z,17.90
2022-07-29T02:46:50.538Z,17.80
2022-07-29T02:49:21.092Z,17.70
2022-07-29T02:51:53.487Z,17.80
2022-07-29T02:54:24.958Z,17.70
2022-07-29T02:56:54.673Z,17.70
2022-07-29T02:59:24.223Z,17.50
2022-07-29T03:01:52.131Z,17.50
2022-07-29T03:04:20.346Z,17.50
2022-07-29T03:06:49.810Z,17.50
2022-07-29T03:09:17.855Z,17.50
2022-07-29T03:11:50.600Z,17.40
2022-07-29T03:14:20.377Z,17.40
2022-07-29T03:16:48.752Z,17.20
2022-07-29T03:19:17.192Z,17.40
2022-07-29T03:21:45.033Z,17.40
2022-07-29T03:24:25.942Z,17.30
2022-07-29T03:26:53.777Z,17.30
2022-07-29T03:29:21.631Z,17.30
2022-07-29T03:31:49.514Z,17.20
2022-07-29T03:34:17.914Z,17.10
2022-07-29T03:36:45.989Z,17.10
2022-07-29T03:39:16.919Z,17.20
2022-07-29T03:41:44.745Z,17.40
2022-07-29T03:44:12.806Z,17.50
2022-07-29T03:46:40.796Z,17.50
2022-07-29T03:49:09.810Z,17.50
2022-07-29T03:51:37.716Z,17.50
2022-07-29T03:54:09.948Z,17.40
2022-07-29T03:56:40.387Z,17.50
2022-07-29T03:59:08.235Z,17.40
2022-07-29T04:01:36.363Z,17.40
2022-07-29T04:04:04.831Z,17.30
2022-07-29T04:06:40.196Z,17.30
2022-07-29T04:09:09.739Z,17.50
2022-07-29T04:12:02.408Z,17.50
2022-07-29T04:14:27.758Z,17.60
2022-07-29T04:16:56.252Z,17.50
2022-07-29T04:19:24.099Z,17.50
2022-07-29T04:21:52.324Z,17.50
2022-07-29T04:24:20.515Z,17.40
2022-07-29T04:26:50.299Z,17.40
2022-07-29T04:29:18.135Z,17.30
2022-07-29T04:31:46.061Z,17.40
2022-07-29T04:34:14.637Z,17.50
2022-07-29T04:36:42.681Z,17.40
2022-07-29T04:39:11.054Z,17.40
2022-07-29T04:41:39.052Z,17.40
2022-07-29T04:44:08.736Z,17.40
2022-07-29T04:46:37.150Z,17.30
2022-07-29T04:49:05.405Z,17.40
2022-07-29T04:51:33.276Z,17.50
2022-07-29T04:54:01.175Z,17.50
2022-07-29T04:56:29.073Z,17.60
2022-07-29T04:58:56.945Z,17.60
2022-07-29T05:01:26.235Z,17.50
2022-07-29T05:03:59.838Z,17.50
2022-07-29T05:06:28.231Z,17.50
2022-07-29T05:08:56.043Z,17.50
2022-07-29T05:11:26.129Z,17.50
2022-07-29T05:13:57.874Z,17.40
2022-07-29T05:16:27.176Z,17.50
2022-07-29T05:18:55.047Z,17.50
2022-07-29T05:21:22.904Z,17.60
2022-07-29T05:23:50.792Z,17.60
2022-07-29T05:26:18.641Z,17.60
2022-07-29T05:28:46.487Z,17.70
2022-07-29T05:31:15.533Z,17.80
2022-07-29T05:33:44.836Z,17.80
2022-07-29T05:36:12.787Z,17.80
2022-07-29T05:38:40.651Z,17.90
2022-07-29T05:41:08.637Z,17.90
2022-07-29T05:43:36.530Z,18.00
2022-07-29T05:46:04.453Z,18.00
2022-07-29T05:48:32.381Z,18.10
2022-07-29T05:51:01.664Z,18.20
2022-07-29T05:53:29.566Z,18.20
2022-07-29T05:55:57.523Z,18.30
2022-07-29T05:58:25.474Z,18.30
2022-07-29T06:00:53.774Z,18.30
2022-07-29T06:03:21.626Z,18.30
2022-07-29T06:05:49.507Z,18.40
2022-07-29T06:08:18.702Z,18.40
2022-07-29T06:10:47.224Z,18.40
2022-07-29T06:13:16.859Z,18.50
2022-07-29T06:15:44.856Z,18.60
2022-07-29T06:18:14.582Z,18.70
2022-07-29T06:20:42.564Z,18.80
2022-07-29T06:23:10.959Z,18.80
2022-07-29T06:25:41.561Z,18.90
2022-07-29T06:28:09.402Z,19.00
2022-07-29T06:30:37.328Z,19.00
2022-07-29T06:33:05.516Z,19.10
2022-07-29T06:35:38.750Z,19.10
2022-07-29T06:38:31.648Z,19.10
2022-07-29T06:41:05.019Z,19.20
2022-07-29T06:43:34.944Z,19.20
2022-07-29T06:46:03.492Z,19.30
2022-07-29T06:48:31.379Z,19.40
2022-07-29T06:50:59.328Z,19.50
2022-07-29T06:53:27.235Z,19.50
2022-07-29T06:55:55.065Z,19.70
2022-07-29T06:58:24.575Z,19.80
2022-07-29T07:00:52.571Z,19.70
2022-07-29T07:03:20.610Z,19.70
2022-07-29T07:05:48.587Z,19.70
2022-07-29T07:08:17.155Z,19.90
2022-07-29T07:10:45.072Z,20.00
2022-07-29T07:13:13.282Z,20.10
2022-07-29T07:15:42.607Z,20.20
2022-07-29T07:18:10.499Z,20.20
2022-07-29T07:20:38.446Z,20.30
2022-07-29T07:23:06.562Z,20.50
2022-07-29T07:25:34.567Z,20.60
2022-07-29T07:28:02.412Z,20.60
2022-07-29T07:30:30.336Z,20.70
2022-07-29T07:32:59.561Z,20.80
2022-07-29T07:35:28.650Z,21.20
2022-07-29T07:37:56.717Z,21.50
2022-07-29T07:40:25.844Z,21.80
2022-07-29T07:42:53.819Z,22.10
2022-07-29T07:45:21.731Z,22.50
2022-07-29T07:47:49.596Z,23.00
2022-07-29T07:50:19.748Z,23.30
2022-07-29T07:52:51.916Z,23.50
2022-07-29T07:55:19.944Z,23.60
2022-07-29T07:57:47.844Z,23.80
2022-07-29T08:00:16.545Z,23.90
2022-07-29T08:02:46.081Z,24.10
2022-07-29T08:05:17.602Z,24.40
2022-07-29T08:07:47.574Z,24.50
2022-07-29T08:10:16.003Z,24.60
2022-07-29T08:12:45.661Z,24.90
2022-07-29T08:15:13.623Z,25.20
2022-07-29T08:17:42.504Z,25.30
2022-07-29T08:20:11.873Z,25.30
2022-07-29T08:22:39.816Z,25.50
2022-07-29T08:25:09.623Z,25.40
2022-07-29T08:27:44.772Z,25.10
2022-07-29T08:30:13.454Z,25.20
2022-07-29T08:32:53.803Z,25.40
2022-07-29T08:35:22.407Z,25.70
2022-07-29T08:37:50.401Z,25.60
2022-07-29T08:40:20.062Z,25.30
2022-07-29T08:42:58.718Z,25.10
2022-07-29T08:45:26.647Z,24.90
2022-07-29T08:47:54.650Z,24.70
2022-07-29T08:50:22.614Z,24.70
2022-07-29T08:52:50.508Z,24.60
2022-07-29T08:55:19.898Z,24.50
2022-07-29T08:57:54.121Z,24.40
2022-07-29T09:00:25.200Z,24.20
2022-07-29T09:02:56.532Z,24.10
2022-07-29T09:05:24.546Z,24.10
2022-07-29T09:07:52.388Z,24.00
2022-07-29T09:10:21.852Z,24.00
2022-07-29T09:12:49.782Z,23.90
2022-07-29T09:15:17.706Z,23.90
2022-07-29T09:17:46.659Z,23.80
2022-07-29T09:20:16.671Z,23.90
2022-07-29T09:22:44.555Z,23.90
2022-07-29T09:25:13.989Z,24.00
2022-07-29T09:27:43.293Z,24.10
2022-07-29T09:30:12.481Z,24.10
2022-07-29T09:32:59.167Z,24.20
2022-07-29T09:35:27.579Z,24.40
2022-07-29T09:37:55.765Z,24.60
2022-07-29T09:40:25.386Z,25.00
2022-07-29T09:42:56.526Z,25.20
2022-07-29T09:45:31.407Z,25.20
2022-07-29T09:48:01.333Z,25.20
2022-07-29T09:50:39.296Z,25.20
2022-07-29T09:53:07.146Z,25.40
2022-07-29T09:55:35.067Z,25.50
2022-07-29T09:58:18.567Z,25.50
2022-07-29T10:00:46.989Z,25.50
2022-07-29T10:03:15.186Z,25.30
2022-07-29T10:05:43.134Z,25.20
2022-07-29T10:08:11.074Z,25.40
2022-07-29T10:10:39.698Z,25.40
2022-07-29T10:13:12.205Z,25.20
2022-07-29T10:15:46.721Z,25.40
2022-07-29T10:18:18.135Z,25.60
2022-07-29T10:20:46.287Z,25.90
2022-07-29T10:23:14.431Z,26.20
2022-07-29T10:25:46.337Z,26.30
2022-07-29T10:28:16.788Z,26.10
2022-07-29T10:30:46.475Z,26.10
2022-07-29T10:33:21.380Z,26.30
2022-07-29T10:36:07.020Z,26.40
2022-07-29T10:38:45.650Z,26.40
2022-07-29T10:41:32.279Z,26.10
2022-07-29T10:44:06.032Z,26.30
2022-07-29T10:46:38.504Z,26.50
2022-07-29T10:49:11.408Z,26.70
2022-07-29T10:52:02.669Z,27.30
2022-07-29T10:54:56.328Z,27.50
2022-07-29T10:57:53.357Z,27.70
2022-07-29T11:00:32.975Z,27.80
2022-07-29T11:03:04.844Z,28.40
2022-07-29T11:05:55.066Z,28.60
2022-07-29T11:08:26.471Z,28.70
2022-07-29T11:11:39.546Z,28.80
2022-07-29T11:14:12.276Z,28.80
2022-07-29T11:17:06.460Z,28.10
2022-07-29T11:19:37.262Z,28.00
2022-07-29T11:22:10.161Z,27.80
2022-07-29T11:24:38.673Z,28.00
2022-07-29T11:27:19.709Z,28.30
2022-07-29T11:29:55.635Z,28.40
2022-07-29T11:32:24.871Z,28.50
2022-07-29T11:35:17.050Z,28.70
2022-07-29T11:37:52.594Z,28.50
2022-07-29T11:40:25.696Z,28.30
2022-07-29T11:42:53.876Z,28.30
2022-07-29T11:45:44.187Z,28.60
2022-07-29T11:48:29.716Z,28.40
2022-07-29T11:51:13.285Z,28.20
2022-07-29T11:53:41.393Z,27.80
2022-07-29T11:56:11.277Z,27.60
2022-07-29T11:58:44.570Z,27.40
2022-07-29T12:01:15.555Z,27.50
2022-07-29T12:03:43.701Z,27.40
2022-07-29T12:06:18.329Z,27.20
2022-07-29T12:08:48.964Z,27.10
2022-07-29T12:11:21.622Z,27.20
2022-07-29T12:13:50.226Z,27.20
2022-07-29T12:16:25.653Z,27.20
2022-07-29T12:18:58.723Z,27.00
2022-07-29T12:21:29.309Z,26.90
2022-07-29T12:24:01.792Z,26.60
2022-07-29T12:26:34.093Z,26.60
2022-07-29T12:29:03.139Z,26.50
2022-07-29T12:31:43.493Z,26.30
2022-07-29T12:34:12.650Z,26.40
2022-07-29T12:36:41.949Z,26.50
2022-07-29T12:39:10.249Z,26.50
2022-07-29T12:41:38.122Z,26.40
2022-07-29T12:44:06.229Z,26.10
2022-07-29T12:46:34.256Z,26.20
2022-07-29T12:49:04.089Z,26.30
2022-07-29T12:51:32.925Z,26.30
2022-07-29T12:54:06.663Z,26.20
2022-07-29T12:56:43.260Z,26.20
2022-07-29T12:59:16.385Z,26.20
2022-07-29T13:01:44.352Z,26.50
2022-07-29T13:04:12.244Z,26.80
2022-07-29T13:06:41.349Z,27.30
2022-07-29T13:09:12.666Z,27.30
2022-07-29T13:11:46.544Z,27.30
2022-07-29T13:14:17.121Z,27.50
2022-07-29T13:17:03.995Z,27.70
2022-07-29T13:19:35.880Z,27.80
2022-07-29T13:22:03.896Z,27.70
2022-07-29T13:24:33.155Z,27.90
2022-07-29T13:27:01.438Z,27.90
2022-07-29T13:29:34.096Z,27.90
2022-07-29T13:32:02.000Z,27.80
2022-07-29T13:34:29.875Z,27.80
2022-07-29T13:36:57.781Z,27.70
2022-07-29T13:39:26.031Z,27.80
2022-07-29T13:41:55.568Z,27.60
2022-07-29T13:44:25.695Z,27.30
2022-07-29T13:46:53.584Z,27.30
2022-07-29T13:49:21.579Z,27.20
2022-07-29T13:51:49.564Z,27.40
2022-07-29T13:54:17.497Z,27.50
2022-07-29T13:56:46.213Z,27.30
2022-07-29T13:59:15.568Z,27.50
2022-07-29T14:01:43.588Z,27.70
2022-07-29T14:04:13.630Z,27.60
2022-07-29T14:06:41.537Z,27.40
2022-07-29T14:09:09.668Z,27.30
2022-07-29T14:11:39.321Z,27.20
2022-07-29T14:14:07.459Z,26.90
2022-07-29T14:16:42.024Z,26.80
2022-07-29T14:19:11.045Z,26.70
2022-07-29T14:21:39.514Z,26.60
2022-07-29T14:24:16.203Z,26.60
2022-07-29T14:26:46.353Z,26.50
2022-07-29T14:29:14.543Z,26.30
2022-07-29T14:31:44.758Z,26.40
2022-07-29T14:34:12.735Z,26.20
2022-07-29T14:36:40.668Z,26.20
2022-07-29T14:39:08.601Z,26.10
2022-07-29T14:41:36.482Z,26.00
2022-07-29T14:44:04.748Z,25.90
2022-07-29T14:46:32.710Z,25.80
2022-07-29T14:49:02.041Z,25.80
2022-07-29T14:51:32.138Z,25.80
2022-07-29T14:54:00.632Z,25.70
2022-07-29T14:56:37.946Z,25.50
2022-07-29T14:59:14.955Z,25.40
2022-07-29T15:01:42.851Z,25.20
2022-07-29T15:04:12.181Z,25.20
2022-07-29T15:06:40.101Z,25.10
2022-07-29T15:09:07.994Z,25.10
2022-07-29T15:11:38.189Z,24.90
2022-07-29T15:14:06.773Z,24.80
2022-07-29T15:16:34.790Z,24.50
2022-07-29T15:19:03.380Z,24.20
2022-07-29T15:21:32.632Z,24.20
2022-07-29T15:24:00.489Z,23.60
2022-07-29T15:26:28.414Z,23.10
2022-07-29T15:28:57.373Z,22.50
2022-07-29T15:31:25.701Z,22.30
2022-07-29T15:33:58.094Z,22.30
2022-07-29T15:36:50.614Z,22.30
2022-07-29T15:39:17.349Z,22.00
2022-07-29T15:41:45.220Z,21.70
2022-07-29T15:44:13.099Z,21.50
2022-07-29T15:46:58.841Z,21.70
2022-07-29T15:49:48.725Z,21.60
2022-07-29T15:52:17.862Z,21.70
2022-07-29T15:54:47.074Z,21.30
2022-07-29T15:57:14.951Z,21.10
2022-07-29T15:59:42.826Z,21.20
2022-07-29T16:02:11.152Z,21.00
2022-07-29T16:04:39.054Z,21.00
2022-07-29T16:07:06.973Z,21.00
2022-07-29T16:09:34.829Z,21.00
2022-07-29T16:12:05.529Z,20.90
2022-07-29T16:14:43.077Z,21.00
2022-07-29T16:17:14.209Z,21.10
2022-07-29T16:19:43.112Z,20.70
2022-07-29T16:22:11.017Z,20.80
2022-07-29T16:24:39.056Z,20.70
2022-07-29T16:27:08.477Z,20.30
2022-07-29T16:29:37.406Z,20.10
2022-07-29T16:32:06.168Z,20.10
2022-07-29T16:34:34.310Z,20.40
2022-07-29T16:37:02.347Z,20.50
2022-07-29T16:39:30.478Z,20.30
2022-07-29T16:42:01.511Z,20.20
2022-07-29T16:44:32.384Z,20.20
2022-07-29T16:47:00.617Z,19.80
2022-07-29T16:49:29.157Z,19.90
2022-07-29T16:51:57.187Z,20.10
2022-07-29T16:54:25.156Z,19.70
2022-07-29T16:56:53.013Z,19.60
2022-07-29T16:59:20.991Z,19.60
2022-07-29T17:01:50.374Z,19.30
2022-07-29T17:04:18.413Z,19.30
2022-07-29T17:06:46.273Z,19.40
2022-07-29T17:09:15.099Z,19.40
2022-07-29T17:11:53.960Z,19.20
2022-07-29T17:14:24.106Z,19.10
2022-07-29T17:17:00.720Z,19.10
2022-07-29T17:19:30.133Z,19.00
2022-07-29T17:22:06.755Z,18.90
2022-07-29T17:24:38.411Z,19.00
2022-07-29T17:27:06.961Z,18.80
2022-07-29T17:29:35.943Z,18.80
2022-07-29T17:32:07.495Z,18.80
2022-07-29T17:34:37.338Z,18.70
2022-07-29T17:37:04.434Z,19.00
2022-07-29T17:39:32.814Z,19.20
2022-07-29T17:42:00.795Z,18.90
2022-07-29T17:44:28.794Z,19.30
2022-07-29T17:46:57.041Z,19.40
2022-07-29T17:49:26.924Z,19.60
2022-07-29T17:51:59.024Z,19.50
2022-07-29T17:54:28.589Z,19.60
2022-07-29T17:56:56.836Z,19.40
2022-07-29T17:59:25.049Z,19.40
2022-07-29T18:01:53.222Z,19.30
2022-07-29T18:04:23.321Z,19.40
2022-07-29T18:06:52.695Z,19.30
2022-07-29T18:09:20.615Z,19.40
2022-07-29T18:11:48.898Z,19.40
2022-07-29T18:14:16.978Z,19.50
2022-07-29T18:16:45.061Z,19.30
2022-07-29T18:19:13.063Z,19.30
2022-07-29T18:21:51.240Z,19.20
2022-07-29T18:24:25.388Z,19.20
2022-07-29T18:26:53.642Z,19.10
2022-07-29T18:29:21.580Z,19.10
2022-07-29T18:31:49.576Z,19.20
2022-07-29T18:34:17.801Z,19.20
2022-07-29T18:36:46.098Z,19.20
2022-07-29T18:39:20.649Z,19.30
2022-07-29T18:41:51.502Z,19.20
2022-07-29T18:44:21.699Z,19.20
2022-07-29T18:46:50.505Z,19.00
2022-07-29T18:49:18.705Z,19.20
2022-07-29T18:51:46.803Z,19.00
2022-07-29T18:54:14.689Z,19.00
2022-07-29T18:56:42.555Z,18.90
2022-07-29T18:59:11.752Z,18.80
2022-07-29T19:01:39.680Z,18.60
2022-07-29T19:04:08.187Z,18.50
2022-07-29T19:06:36.197Z,18.30
2022-07-29T19:09:04.109Z,18.10
2022-07-29T19:11:32.029Z,18.30
2022-07-29T19:13:59.942Z,18.00
2022-07-29T19:16:29.829Z,17.80
2022-07-29T19:18:57.730Z,17.80
2022-07-29T19:21:25.979Z,17.70
2022-07-29T19:24:01.860Z,17.70
2022-07-29T19:26:36.525Z,17.70
2022-07-29T19:29:04.599Z,17.80
2022-07-29T19:31:33.986Z,17.70
2022-07-29T19:34:01.927Z,17.50
2022-07-29T19:36:31.244Z,17.40
2022-07-29T19:38:59.982Z,17.40
2022-07-29T19:41:28.359Z,17.50
2022-07-29T19:43:56.246Z,17.10
2022-07-29T19:46:24.383Z,17.30
2022-07-29T19:48:53.995Z,17.40
2022-07-29T19:51:22.501Z,17.30
2022-07-29T19:53:50.388Z,17.40
2022-07-29T19:56:18.392Z,17.40
2022-07-29T19:58:47.279Z,17.40
2022-07-29T20:01:16.668Z,17.30
2022-07-29T20:03:44.726Z,17.40
2022-07-29T20:06:14.016Z,17.20
2022-07-29T20:08:41.872Z,17.10
2022-07-29T20:11:09.844Z,17.30
2022-07-29T20:13:37.670Z,17.20
2022-07-29T20:16:08.196Z,17.10
2022-07-29T20:18:36.234Z,17.30
2022-07-29T20:21:04.946Z,17.50
2022-07-29T20:23:34.318Z,17.70
2022-07-29T20:26:03.471Z,17.50
2022-07-29T20:28:33.031Z,17.60
2022-07-29T20:31:01.022Z,17.70
2022-07-29T20:33:28.936Z,17.80
2022-07-29T20:35:56.812Z,17.90
2022-07-29T20:38:24.795Z,17.80
2022-07-29T20:40:58.483Z,17.90
2022-07-29T20:43:27.043Z,17.60
2022-07-29T20:45:55.227Z,17.80
2022-07-29T20:48:23.084Z,17.90
2022-07-29T20:50:51.467Z,17.90
2022-07-29T20:53:20.417Z,17.90
2022-07-29T20:55:48.343Z,17.80
2022-07-29T20:58:17.861Z,17.60
2022-07-29T21:00:45.727Z,17.60
2022-07-29T21:03:13.646Z,17.70
2022-07-29T21:05:43.887Z,17.60
2022-07-29T21:08:11.985Z,17.70
2022-07-29T21:10:39.849Z,17.70
2022-07-29T21:13:07.689Z,17.40
2022-07-29T21:15:37.271Z,17.50
2022-07-29T21:18:09.194Z,17.40
2022-07-29T21:20:37.072Z,17.50
2022-07-29T21:23:05.255Z,17.40
2022-07-29T21:25:34.349Z,17.50
2022-07-29T21:28:19.814Z,17.30
2022-07-29T21:30:51.778Z,17.40
2022-07-29T21:33:19.620Z,17.50
2022-07-29T21:38:35.341Z,17.70
2022-07-29T21:41:03.412Z,17.50
2022-07-29T21:43:32.512Z,17.50
2022-07-29T21:46:01.767Z,17.20
2022-07-29T21:48:29.917Z,17.30
2022-07-29T21:50:57.928Z,17.40
2022-07-29T21:53:27.699Z,17.20
2022-07-29T21:55:55.721Z,17.40
2022-07-29T21:58:24.774Z,17.30
2022-07-29T22:00:53.814Z,17.10
2022-07-29T22:03:23.225Z,17.20
2022-07-29T22:05:51.087Z,17.00
2022-07-29T22:08:21.087Z,17.00
2022-07-29T22:10:48.944Z,17.00
2022-07-29T22:13:16.872Z,17.00
2022-07-29T22:15:47.191Z,17.00
2022-07-29T22:18:20.603Z,16.90
2022-07-29T22:20:50.669Z,16.90
2022-07-29T22:23:18.531Z,16.70
2022-07-29T22:25:46.404Z,16.90
2022-07-29T22:28:14.272Z,17.00
2022-07-29T22:30:42.203Z,17.00
2022-07-29T22:33:10.083Z,17.00
2022-07-29T22:35:48.531Z,17.10
2022-07-29T22:38:18.999Z,17.20
2022-07-29T22:40:48.665Z,17.20
2022-07-29T22:43:18.421Z,17.00
2022-07-29T22:45:46.358Z,16.90
2022-07-29T22:48:14.183Z,17.10
2022-07-29T22:50:42.212Z,17.20
2022-07-29T22:53:10.079Z,17.20
2022-07-29T22:55:39.404Z,17.20
2022-07-29T22:58:07.260Z,17.20
2022-07-29T23:00:35.706Z,16.90
2022-07-29T23:03:03.582Z,17.10
2022-07-29T23:05:32.617Z,17.00
2022-07-29T23:08:00.529Z,16.90
2022-07-29T23:10:28.620Z,16.90
2022-07-29T23:12:57.869Z,17.10
2022-07-29T23:15:25.722Z,17.20
2022-07-29T23:17:53.540Z,17.20
2022-07-29T23:20:21.357Z,17.10
2022-07-29T23:22:49.241Z,17.20
2022-07-29T23:25:17.113Z,17.10
2022-07-29T23:27:44.965Z,17.00
2022-07-29T23:30:14.613Z,17.00
2022-07-29T23:32:42.495Z,17.10
2022-07-29T23:35:10.869Z,17.10
2022-07-29T23:37:39.113Z,17.00
2022-07-29T23:40:13.625Z,17.10
2022-07-29T23:42:42.845Z,17.00
2022-07-29T23:45:11.371Z,17.10
2022-07-29T23:47:40.633Z,17.00
2022-07-29T23:50:11.946Z,16.90
2022-07-29T23:52:39.849Z,16.90
2022-07-29T23:55:36.766Z,17.20
2022-07-29T23:57:57.305Z,17.10
